sensor_id;sensor_type;location;lat;lon;timestamp;P1;durP1;ratioP1;P2;durP2;ratioP2
54458;SDS011;40368;49.350;8.152;2022-12-18T00:00:38;199;;;400;;
54458;SDS011;40368;49.350;8.152;2022-12-18T00:02:26;211;;;412;;
54458;SDS011;40368;49.350;8.152;2022-12-18T00:04:18;204;;;449;;
54458;SDS011;40368;49.350;8.152;2022-12-18T00:05:31;197;;;402;;
54458;SDS011;40368;49.350;8.152;2022-12-18T00:07:22;196;;;412;;
54458;SDS011;40368;49.350;8.152;2022-12-18T00:08:36;209;;;476;;
54458;SDS011;40368;49.350;8.152;2022-12-18T00:10:28;206;;;426;;
54458;SDS011;40368;49.350;8.152;2022-12-18T00:12:18;205;;;437;;
54458;SDS011;40368;49.350;8.152;2022-12-18T00:13:33;195;;;401;;
54458;SDS011;40368;49.350;8.152;2022-12-18T00:15:24;196;;;414;;
54458;SDS011;40368;49.350;8.152;2022-12-18T00:16:38;198;;;398;;
54458;SDS011;40368;49.350;8.152;2022-12-18T00:18:29;194;;;414;;
54458;SDS011;40368;49.350;8.152;2022-12-18T00:20:20;207;;;425;;
54458;SDS011;40368;49.350;8.152;2022-12-18T00:21:34;200;;;425;;
54458;SDS011;40368;49.350;8.152;2022-12-18T00:23:26;196;;;426;;
54458;SDS011;40368;49.350;8.152;2022-12-18T00:25:17;194;;;397;;
54458;SDS011;40368;49.350;8.152;2022-12-18T00:26:32;198;;;442;;
54458;SDS011;40368;49.350;8.152;2022-12-18T00:28:22;214;;;460;;
54458;SDS011;40368;49.350;8.152;2022-12-18T00:29:36;194;;;401;;
54458;SDS011;40368;49.350;8.152;2022-12-18T00:31:27;196;;;403;;
54458;SDS011;40368;49.350;8.152;2022-12-18T00:33:19;196;;;403;;
54458;SDS011;40368;49.350;8.152;2022-12-18T00:34:33;209;;;422;;
54458;SDS011;40368;49.350;8.152;2022-12-18T00:36:24;200;;;421;;
54458;SDS011;40368;49.350;8.152;2022-12-18T00:39:21;207;;;426;;
54458;SDS011;40368;49.350;8.152;2022-12-18T00:40:35;205;;;442;;
54458;SDS011;40368;49.350;8.152;2022-12-18T00:42:26;197;;;410;;
54458;SDS011;40368;49.350;8.152;2022-12-18T00:44:18;201;;;402;;
54458;SDS011;40368;49.350;8.152;2022-12-18T00:45:32;192;;;396;;
54458;SDS011;40368;49.350;8.152;2022-12-18T00:47:23;201;;;399;;
54458;SDS011;40368;49.350;8.152;2022-12-18T00:48:37;204;;;462;;
54458;SDS011;40368;49.350;8.152;2022-12-18T00:50:28;212;;;457;;
54458;SDS011;40368;49.350;8.152;2022-12-18T00:52:19;212;;;457;;
54458;SDS011;40368;49.350;8.152;2022-12-18T00:53:33;203;;;409;;
54458;SDS011;40368;49.350;8.152;2022-12-18T00:55:25;198;;;442;;
54458;SDS011;40368;49.350;8.152;2022-12-18T00:56:39;195;;;437;;
54458;SDS011;40368;49.350;8.152;2022-12-18T00:58:30;191;;;402;;
54458;SDS011;40368;49.350;8.152;2022-12-18T01:00:21;188;;;386;;
54458;SDS011;40368;49.350;8.152;2022-12-18T01:01:35;198;;;415;;
54458;SDS011;40368;49.350;8.152;2022-12-18T01:03:26;187;;;374;;
54458;SDS011;40368;49.350;8.152;2022-12-18T01:05:18;184;;;389;;
54458;SDS011;40368;49.350;8.152;2022-12-18T01:06:32;198;;;397;;
54458;SDS011;40368;49.350;8.152;2022-12-18T01:07:09;202;;;435;;
54458;SDS011;40368;49.350;8.152;2022-12-18T01:08:23;204;;;443;;
54458;SDS011;40368;49.350;8.152;2022-12-18T01:09:37;192;;;377;;
54458;SDS011;40368;49.350;8.152;2022-12-18T01:11:28;201;;;430;;
54458;SDS011;40368;49.350;8.152;2022-12-18T01:13:19;193;;;386;;
54458;SDS011;40368;49.350;8.152;2022-12-18T01:14:34;183;;;391;;
54458;SDS011;40368;49.350;8.152;2022-12-18T01:16:25;197;;;397;;
54458;SDS011;40368;49.350;8.152;2022-12-18T01:17:39;179;;;360;;
54458;SDS011;40368;49.350;8.152;2022-12-18T01:19:30;178;;;373;;
54458;SDS011;40368;49.350;8.152;2022-12-18T01:21:22;177;;;357;;
54458;SDS011;40368;49.350;8.152;2022-12-18T01:22:35;195;;;402;;
54458;SDS011;40368;49.350;8.152;2022-12-18T01:24:27;187;;;389;;
54458;SDS011;40368;49.350;8.152;2022-12-18T01:26:18;193;;;405;;
54458;SDS011;40368;49.350;8.152;2022-12-18T01:27:33;173;;;362;;
54458;SDS011;40368;49.350;8.152;2022-12-18T01:29:23;182;;;371;;
54458;SDS011;40368;49.350;8.152;2022-12-18T01:30:37;190;;;428;;
54458;SDS011;40368;49.350;8.152;2022-12-18T01:31:16;180;;;363;;
54458;SDS011;40368;49.350;8.152;2022-12-18T01:32:29;175;;;349;;
54458;SDS011;40368;49.350;8.152;2022-12-18T01:34:20;175;;;349;;
54458;SDS011;40368;49.350;8.152;2022-12-18T01:35:39;182;;;384;;
54458;SDS011;40368;49.350;8.152;2022-12-18T01:37:25;183;;;341;;
54458;SDS011;40368;49.350;8.152;2022-12-18T01:38:39;185;;;395;;
54458;SDS011;40368;49.350;8.152;2022-12-18T01:40:30;180;;;345;;
54458;SDS011;40368;49.350;8.152;2022-12-18T01:42:22;178;;;356;;
54458;SDS011;40368;49.350;8.152;2022-12-18T01:43:52;180;;;370;;
54458;SDS011;40368;49.350;8.152;2022-12-18T01:45:27;181;;;361;;
54458;SDS011;40368;49.350;8.152;2022-12-18T01:47:19;176;;;347;;
54458;SDS011;40368;49.350;8.152;2022-12-18T01:50:16;181;;;387;;
54458;SDS011;40368;49.350;8.152;2022-12-18T01:51:29;190;;;393;;
54458;SDS011;40368;49.350;8.152;2022-12-18T01:53:21;190;;;393;;
54458;SDS011;40368;49.350;8.152;2022-12-18T01:54:34;182;;;374;;
54458;SDS011;40368;49.350;8.152;2022-12-18T01:56:26;190;;;419;;
54458;SDS011;40368;49.350;8.152;2022-12-18T01:58:17;193;;;386;;
54458;SDS011;40368;49.350;8.152;2022-12-18T01:59:31;190;;;377;;
54458;SDS011;40368;49.350;8.152;2022-12-18T02:01:22;185;;;392;;
54458;SDS011;40368;49.350;8.152;2022-12-18T02:02:36;184;;;369;;
54458;SDS011;40368;49.350;8.152;2022-12-18T02:07:36;188;;;396;;
54458;SDS011;40368;49.350;8.152;2022-12-18T02:08:10;190;;;380;;
54458;SDS011;40368;49.350;8.152;2022-12-18T02:09:25;193;;;385;;
54458;SDS011;40368;49.350;8.152;2022-12-18T02:11:53;198;;;400;;
54458;SDS011;40368;49.350;8.152;2022-12-18T02:13:07;198;;;421;;
54458;SDS011;40368;49.350;8.152;2022-12-18T02:14:21;198;;;421;;
54458;SDS011;40368;49.350;8.152;2022-12-18T02:16:50;200;;;415;;
54458;SDS011;40368;49.350;8.152;2022-12-18T02:18:04;189;;;389;;
54458;SDS011;40368;49.350;8.152;2022-12-18T02:18:41;196;;;395;;
54458;SDS011;40368;49.350;8.152;2022-12-18T02:20:32;191;;;399;;
54458;SDS011;40368;49.350;8.152;2022-12-18T02:22:26;191;;;382;;
54458;SDS011;40368;49.350;8.152;2022-12-18T02:23:40;177;;;370;;
54458;SDS011;40368;49.350;8.152;2022-12-18T02:25:33;188;;;374;;
54458;SDS011;40368;49.350;8.152;2022-12-18T02:27:19;194;;;391;;
54458;SDS011;40368;49.350;8.152;2022-12-18T02:28:34;187;;;385;;
54458;SDS011;40368;49.350;8.152;2022-12-18T02:30:24;186;;;368;;
54458;SDS011;40368;49.350;8.152;2022-12-18T02:31:39;185;;;394;;
54458;SDS011;40368;49.350;8.152;2022-12-18T02:33:29;189;;;393;;
54458;SDS011;40368;49.350;8.152;2022-12-18T02:35:22;189;;;393;;
54458;SDS011;40368;49.350;8.152;2022-12-18T02:36:35;188;;;380;;
54458;SDS011;40368;49.350;8.152;2022-12-18T02:38:26;184;;;377;;
54458;SDS011;40368;49.350;8.152;2022-12-18T02:40:17;188;;;388;;
54458;SDS011;40368;49.350;8.152;2022-12-18T02:41:31;187;;;384;;
54458;SDS011;40368;49.350;8.152;2022-12-18T02:43:22;187;;;384;;
54458;SDS011;40368;49.350;8.152;2022-12-18T02:44:41;204;;;407;;
54458;SDS011;40368;49.350;8.152;2022-12-18T02:46:29;193;;;424;;
54458;SDS011;40368;49.350;8.152;2022-12-18T02:48:20;187;;;418;;
54458;SDS011;40368;49.350;8.152;2022-12-18T02:49:34;185;;;412;;
54458;SDS011;40368;49.350;8.152;2022-12-18T02:51:26;196;;;405;;
54458;SDS011;40368;49.350;8.152;2022-12-18T02:52:39;191;;;399;;
54458;SDS011;40368;49.350;8.152;2022-12-18T02:54:35;179;;;336;;
54458;SDS011;40368;49.350;8.152;2022-12-18T02:56:21;179;;;336;;
54458;SDS011;40368;49.350;8.152;2022-12-18T02:57:36;196;;;393;;
54458;SDS011;40368;49.350;8.152;2022-12-18T03:01:09;186;;;374;;
54458;SDS011;40368;49.350;8.152;2022-12-18T03:02:24;190;;;434;;
54458;SDS011;40368;49.350;8.152;2022-12-18T03:03:38;193;;;384;;
54458;SDS011;40368;49.350;8.152;2022-12-18T03:05:30;199;;;430;;
54458;SDS011;40368;49.350;8.152;2022-12-18T03:07:20;200;;;444;;
54458;SDS011;40368;49.350;8.152;2022-12-18T03:08:34;196;;;415;;
54458;SDS011;40368;49.350;8.152;2022-12-18T03:10:26;196;;;397;;
54458;SDS011;40368;49.350;8.152;2022-12-18T03:11:40;203;;;411;;
54458;SDS011;40368;49.350;8.152;2022-12-18T03:13:31;179;;;363;;
54458;SDS011;40368;49.350;8.152;2022-12-18T03:15:22;193;;;430;;
54458;SDS011;40368;49.350;8.152;2022-12-18T03:16:35;188;;;361;;
54458;SDS011;40368;49.350;8.152;2022-12-18T03:18:29;190;;;399;;
54458;SDS011;40368;49.350;8.152;2022-12-18T03:20:19;195;;;368;;
54458;SDS011;40368;49.350;8.152;2022-12-18T03:21:33;194;;;398;;
54458;SDS011;40368;49.350;8.152;2022-12-18T03:23:24;187;;;393;;
54458;SDS011;40368;49.350;8.152;2022-12-18T03:24:37;191;;;398;;
54458;SDS011;40368;49.350;8.152;2022-12-18T03:26:28;185;;;374;;
54458;SDS011;40368;49.350;8.152;2022-12-18T03:28:20;195;;;386;;
54458;SDS011;40368;49.350;8.152;2022-12-18T03:29:35;189;;;387;;
54458;SDS011;40368;49.350;8.152;2022-12-18T03:31:25;193;;;389;;
54458;SDS011;40368;49.350;8.152;2022-12-18T03:32:39;188;;;382;;
54458;SDS011;40368;49.350;8.152;2022-12-18T03:34:30;181;;;375;;
54458;SDS011;40368;49.350;8.152;2022-12-18T03:36:21;186;;;365;;
54458;SDS011;40368;49.350;8.152;2022-12-18T03:37:35;180;;;345;;
54458;SDS011;40368;49.350;8.152;2022-12-18T03:39:27;203;;;430;;
54458;SDS011;40368;49.350;8.152;2022-12-18T03:41:19;195;;;402;;
54458;SDS011;40368;49.350;8.152;2022-12-18T03:42:32;196;;;416;;
54458;SDS011;40368;49.350;8.152;2022-12-18T03:44:25;191;;;399;;
54458;SDS011;40368;49.350;8.152;2022-12-18T03:45:38;200;;;423;;
54458;SDS011;40368;49.350;8.152;2022-12-18T03:47:29;202;;;425;;
54458;SDS011;40368;49.350;8.152;2022-12-18T03:49:23;205;;;423;;
54458;SDS011;40368;49.350;8.152;2022-12-18T03:50:36;201;;;398;;
54458;SDS011;40368;49.350;8.152;2022-12-18T03:52:25;193;;;407;;
54458;SDS011;40368;49.350;8.152;2022-12-18T03:53:40;201;;;432;;
54458;SDS011;40368;49.350;8.152;2022-12-18T03:55:31;205;;;432;;
54458;SDS011;40368;49.350;8.152;2022-12-18T03:58:36;204;;;441;;
54458;SDS011;40368;49.350;8.152;2022-12-18T04:00:19;210;;;443;;
54458;SDS011;40368;49.350;8.152;2022-12-18T04:03:24;214;;;454;;
54458;SDS011;40368;49.350;8.152;2022-12-18T04:04:38;205;;;417;;
54458;SDS011;40368;49.350;8.152;2022-12-18T04:06:29;187;;;389;;
54458;SDS011;40368;49.350;8.152;2022-12-18T04:08:20;213;;;406;;
54458;SDS011;40368;49.350;8.152;2022-12-18T04:09:34;214;;;448;;
54458;SDS011;40368;49.350;8.152;2022-12-18T04:11:26;209;;;423;;
54458;SDS011;40368;49.350;8.152;2022-12-18T04:13:21;208;;;430;;
54458;SDS011;40368;49.350;8.152;2022-12-18T04:14:31;203;;;416;;
54458;SDS011;40368;49.350;8.152;2022-12-18T04:16:22;202;;;440;;
54458;SDS011;40368;49.350;8.152;2022-12-18T04:17:36;204;;;422;;
54458;SDS011;40368;49.350;8.152;2022-12-18T04:19:28;201;;;439;;
54458;SDS011;40368;49.350;8.152;2022-12-18T04:21:19;203;;;436;;
54458;SDS011;40368;49.350;8.152;2022-12-18T04:22:33;212;;;441;;
54458;SDS011;40368;49.350;8.152;2022-12-18T04:24:24;204;;;442;;
54458;SDS011;40368;49.350;8.152;2022-12-18T04:25:38;213;;;414;;
54458;SDS011;40368;49.350;8.152;2022-12-18T04:27:29;200;;;421;;
54458;SDS011;40368;49.350;8.152;2022-12-18T04:29:20;204;;;435;;
54458;SDS011;40368;49.350;8.152;2022-12-18T04:30:35;206;;;413;;
54458;SDS011;40368;49.350;8.152;2022-12-18T04:32:26;207;;;404;;
54458;SDS011;40368;49.350;8.152;2022-12-18T04:34:17;207;;;443;;
54458;SDS011;40368;49.350;8.152;2022-12-18T04:35:31;196;;;392;;
54458;SDS011;40368;49.350;8.152;2022-12-18T04:37:22;194;;;423;;
54458;SDS011;40368;49.350;8.152;2022-12-18T04:38:36;202;;;415;;
54458;SDS011;40368;49.350;8.152;2022-12-18T04:40:28;201;;;410;;
54458;SDS011;40368;49.350;8.152;2022-12-18T04:42:19;198;;;386;;
54458;SDS011;40368;49.350;8.152;2022-12-18T04:43:33;219;;;452;;
54458;SDS011;40368;49.350;8.152;2022-12-18T04:45:24;200;;;419;;
54458;SDS011;40368;49.350;8.152;2022-12-18T04:46:38;192;;;385;;
54458;SDS011;40368;49.350;8.152;2022-12-18T04:48:29;199;;;407;;
54458;SDS011;40368;49.350;8.152;2022-12-18T04:50:21;196;;;393;;
54458;SDS011;40368;49.350;8.152;2022-12-18T04:51:35;189;;;408;;
54458;SDS011;40368;49.350;8.152;2022-12-18T04:53:26;250;;;517;;
54458;SDS011;40368;49.350;8.152;2022-12-18T04:55:17;197;;;406;;
54458;SDS011;40368;49.350;8.152;2022-12-18T04:56:31;192;;;390;;
54458;SDS011;40368;49.350;8.152;2022-12-18T04:58:22;191;;;390;;
54458;SDS011;40368;49.350;8.152;2022-12-18T05:01:19;195;;;377;;
54458;SDS011;40368;49.350;8.152;2022-12-18T05:02:34;195;;;378;;
54458;SDS011;40368;49.350;8.152;2022-12-18T05:04:25;191;;;387;;
54458;SDS011;40368;49.350;8.152;2022-12-18T05:06:16;193;;;389;;
54458;SDS011;40368;49.350;8.152;2022-12-18T05:07:30;196;;;395;;
54458;SDS011;40368;49.350;8.152;2022-12-18T05:09:22;196;;;387;;
54458;SDS011;40368;49.350;8.152;2022-12-18T05:10:35;194;;;380;;
54458;SDS011;40368;49.350;8.152;2022-12-18T05:12:27;198;;;394;;
54458;SDS011;40368;49.350;8.152;2022-12-18T05:14:18;198;;;413;;
54458;SDS011;40368;49.350;8.152;2022-12-18T05:15:32;198;;;373;;
54458;SDS011;40368;49.350;8.152;2022-12-18T05:17:23;253;;;524;;
54458;SDS011;40368;49.350;8.152;2022-12-18T05:18:37;236;;;490;;
54458;SDS011;40368;49.350;8.152;2022-12-18T05:20:28;208;;;422;;
54458;SDS011;40368;49.350;8.152;2022-12-18T05:22:20;201;;;383;;
54458;SDS011;40368;49.350;8.152;2022-12-18T05:23:34;198;;;385;;
54458;SDS011;40368;49.350;8.152;2022-12-18T05:25:25;216;;;449;;
54458;SDS011;40368;49.350;8.152;2022-12-18T05:26:39;210;;;466;;
54458;SDS011;40368;49.350;8.152;2022-12-18T05:28:31;207;;;420;;
54458;SDS011;40368;49.350;8.152;2022-12-18T05:30:21;209;;;458;;
54458;SDS011;40368;49.350;8.152;2022-12-18T05:31:36;204;;;422;;
54458;SDS011;40368;49.350;8.152;2022-12-18T05:33:29;199;;;433;;
54458;SDS011;40368;49.350;8.152;2022-12-18T05:35:18;194;;;378;;
54458;SDS011;40368;49.350;8.152;2022-12-18T05:36:32;206;;;428;;
54458;SDS011;40368;49.350;8.152;2022-12-18T05:38:24;193;;;386;;
54458;SDS011;40368;49.350;8.152;2022-12-18T05:39:37;199;;;393;;
54458;SDS011;40368;49.350;8.152;2022-12-18T05:41:28;192;;;389;;
54458;SDS011;40368;49.350;8.152;2022-12-18T05:43:20;189;;;398;;
54458;SDS011;40368;49.350;8.152;2022-12-18T05:44:34;193;;;363;;
54458;SDS011;40368;49.350;8.152;2022-12-18T05:46:25;188;;;401;;
54458;SDS011;40368;49.350;8.152;2022-12-18T05:47:39;197;;;375;;
54458;SDS011;40368;49.350;8.152;2022-12-18T05:49:30;192;;;384;;
54458;SDS011;40368;49.350;8.152;2022-12-18T05:51:22;190;;;368;;
54458;SDS011;40368;49.350;8.152;2022-12-18T05:52:36;195;;;369;;
54458;SDS011;40368;49.350;8.152;2022-12-18T05:54:27;195;;;413;;
54458;SDS011;40368;49.350;8.152;2022-12-18T05:56:19;194;;;399;;
54458;SDS011;40368;49.350;8.152;2022-12-18T05:57:32;264;;;502;;
54458;SDS011;40368;49.350;8.152;2022-12-18T05:59:23;242;;;465;;
54458;SDS011;40368;49.350;8.152;2022-12-18T06:02:21;199;;;389;;
54458;SDS011;40368;49.350;8.152;2022-12-18T06:03:35;218;;;429;;
54458;SDS011;40368;49.350;8.152;2022-12-18T06:05:26;223;;;449;;
54458;SDS011;40368;49.350;8.152;2022-12-18T06:07:17;222;;;422;;
54458;SDS011;40368;49.350;8.152;2022-12-18T06:08:31;217;;;438;;
54458;SDS011;40368;49.350;8.152;2022-12-18T06:10:22;207;;;420;;
54458;SDS011;40368;49.350;8.152;2022-12-18T06:11:37;195;;;388;;
54458;SDS011;40368;49.350;8.152;2022-12-18T06:13:28;206;;;399;;
54458;SDS011;40368;49.350;8.152;2022-12-18T06:15:19;215;;;458;;
54458;SDS011;40368;49.350;8.152;2022-12-18T06:16:33;197;;;363;;
54458;SDS011;40368;49.350;8.152;2022-12-18T06:18:24;196;;;390;;
54458;SDS011;40368;49.350;8.152;2022-12-18T06:19:38;204;;;394;;
54458;SDS011;40368;49.350;8.152;2022-12-18T06:21:30;202;;;387;;
54458;SDS011;40368;49.350;8.152;2022-12-18T06:23:20;193;;;392;;
54458;SDS011;40368;49.350;8.152;2022-12-18T06:24:35;194;;;403;;
54458;SDS011;40368;49.350;8.152;2022-12-18T06:26:26;198;;;386;;
54458;SDS011;40368;49.350;8.152;2022-12-18T06:28:17;209;;;418;;
54458;SDS011;40368;49.350;8.152;2022-12-18T06:29:31;194;;;379;;
54458;SDS011;40368;49.350;8.152;2022-12-18T06:31:22;199;;;378;;
54458;SDS011;40368;49.350;8.152;2022-12-18T06:32:36;226;;;445;;
54458;SDS011;40368;49.350;8.152;2022-12-18T06:34:28;199;;;378;;
54458;SDS011;40368;49.350;8.152;2022-12-18T06:36:19;207;;;414;;
54458;SDS011;40368;49.350;8.152;2022-12-18T06:37:33;206;;;409;;
54458;SDS011;40368;49.350;8.152;2022-12-18T06:39:24;198;;;385;;
54458;SDS011;40368;49.350;8.152;2022-12-18T06:40:38;194;;;382;;
54458;SDS011;40368;49.350;8.152;2022-12-18T06:42:29;214;;;403;;
54458;SDS011;40368;49.350;8.152;2022-12-18T06:44:21;195;;;370;;
54458;SDS011;40368;49.350;8.152;2022-12-18T06:45:35;211;;;412;;
54458;SDS011;40368;49.350;8.152;2022-12-18T06:47:26;208;;;430;;
54458;SDS011;40368;49.350;8.152;2022-12-18T06:49:17;203;;;395;;
54458;SDS011;40368;49.350;8.152;2022-12-18T06:50:31;208;;;395;;
54458;SDS011;40368;49.350;8.152;2022-12-18T06:52:22;219;;;431;;
54458;SDS011;40368;49.350;8.152;2022-12-18T06:53:37;265;;;522;;
54458;SDS011;40368;49.350;8.152;2022-12-18T06:55:28;486;;;993;;
54458;SDS011;40368;49.350;8.152;2022-12-18T06:57:19;467;;;944;;
54458;SDS011;40368;49.350;8.152;2022-12-18T06:58:33;264;;;490;;
54458;SDS011;40368;49.350;8.152;2022-12-18T07:03:22;227;;;436;;
54458;SDS011;40368;49.350;8.152;2022-12-18T07:04:35;222;;;428;;
54458;SDS011;40368;49.350;8.152;2022-12-18T07:06:27;245;;;450;;
54458;SDS011;40368;49.350;8.152;2022-12-18T07:08:18;256;;;470;;
54458;SDS011;40368;49.350;8.152;2022-12-18T07:09:32;395;;;792;;
54458;SDS011;40368;49.350;8.152;2022-12-18T07:11:23;260;;;532;;
54458;SDS011;40368;49.350;8.152;2022-12-18T07:12:37;238;;;452;;
54458;SDS011;40368;49.350;8.152;2022-12-18T07:14:28;245;;;493;;
54458;SDS011;40368;49.350;8.152;2022-12-18T07:16:20;264;;;526;;
54458;SDS011;40368;49.350;8.152;2022-12-18T07:17:34;240;;;451;;
54458;SDS011;40368;49.350;8.152;2022-12-18T07:19:25;239;;;453;;
54458;SDS011;40368;49.350;8.152;2022-12-18T07:20:39;247;;;493;;
54458;SDS011;40368;49.350;8.152;2022-12-18T07:22:30;215;;;416;;
54458;SDS011;40368;49.350;8.152;2022-12-18T07:24:21;215;;;416;;
54458;SDS011;40368;49.350;8.152;2022-12-18T07:25:36;213;;;414;;
54458;SDS011;40368;49.350;8.152;2022-12-18T07:27:27;229;;;424;;
54458;SDS011;40368;49.350;8.152;2022-12-18T07:29:18;234;;;449;;
54458;SDS011;40368;49.350;8.152;2022-12-18T07:30:32;220;;;427;;
54458;SDS011;40368;49.350;8.152;2022-12-18T07:32:23;217;;;442;;
54458;SDS011;40368;49.350;8.152;2022-12-18T07:33:37;225;;;444;;
54458;SDS011;40368;49.350;8.152;2022-12-18T07:35:29;222;;;427;;
54458;SDS011;40368;49.350;8.152;2022-12-18T07:37:20;203;;;430;;
54458;SDS011;40368;49.350;8.152;2022-12-18T07:38:34;212;;;397;;
54458;SDS011;40368;49.350;8.152;2022-12-18T07:40:25;218;;;413;;
54458;SDS011;40368;49.350;8.152;2022-12-18T07:41:39;282;;;551;;
54458;SDS011;40368;49.350;8.152;2022-12-18T07:43:30;225;;;417;;
54458;SDS011;40368;49.350;8.152;2022-12-18T07:45:22;228;;;442;;
54458;SDS011;40368;49.350;8.152;2022-12-18T07:46:36;223;;;433;;
54458;SDS011;40368;49.350;8.152;2022-12-18T07:48:27;203;;;403;;
54458;SDS011;40368;49.350;8.152;2022-12-18T07:50:18;215;;;414;;
54458;SDS011;40368;49.350;8.152;2022-12-18T07:51:32;218;;;401;;
54458;SDS011;40368;49.350;8.152;2022-12-18T07:53:23;205;;;425;;
54458;SDS011;40368;49.350;8.152;2022-12-18T07:54:37;229;;;493;;
54458;SDS011;40368;49.350;8.152;2022-12-18T07:56:29;220;;;398;;
54458;SDS011;40368;49.350;8.152;2022-12-18T07:58:20;214;;;394;;
54458;SDS011;40368;49.350;8.152;2022-12-18T07:59:34;217;;;411;;
54458;SDS011;40368;49.350;8.152;2022-12-18T08:03:08;213;;;425;;
54458;SDS011;40368;49.350;8.152;2022-12-18T08:04:22;222;;;431;;
54458;SDS011;40368;49.350;8.152;2022-12-18T08:05:36;214;;;388;;
54458;SDS011;40368;49.350;8.152;2022-12-18T08:07:28;217;;;437;;
54458;SDS011;40368;49.350;8.152;2022-12-18T08:09:19;224;;;422;;
54458;SDS011;40368;49.350;8.152;2022-12-18T08:10:33;216;;;414;;
54458;SDS011;40368;49.350;8.152;2022-12-18T08:12:24;226;;;454;;
54458;SDS011;40368;49.350;8.152;2022-12-18T08:13:38;217;;;415;;
54458;SDS011;40368;49.350;8.152;2022-12-18T08:15:29;224;;;467;;
54458;SDS011;40368;49.350;8.152;2022-12-18T08:17:21;227;;;424;;
54458;SDS011;40368;49.350;8.152;2022-12-18T08:18:35;221;;;422;;
54458;SDS011;40368;49.350;8.152;2022-12-18T08:20:26;217;;;409;;
54458;SDS011;40368;49.350;8.152;2022-12-18T08:22:17;211;;;379;;
54458;SDS011;40368;49.350;8.152;2022-12-18T08:23:31;211;;;403;;
54458;SDS011;40368;49.350;8.152;2022-12-18T08:25:22;216;;;407;;
54458;SDS011;40368;49.350;8.152;2022-12-18T08:26:36;217;;;416;;
54458;SDS011;40368;49.350;8.152;2022-12-18T08:28:28;220;;;437;;
54458;SDS011;40368;49.350;8.152;2022-12-18T08:30:19;227;;;423;;
54458;SDS011;40368;49.350;8.152;2022-12-18T08:31:33;225;;;408;;
54458;SDS011;40368;49.350;8.152;2022-12-18T08:33:24;222;;;428;;
54458;SDS011;40368;49.350;8.152;2022-12-18T08:34:38;215;;;395;;
54458;SDS011;40368;49.350;8.152;2022-12-18T08:36:29;213;;;400;;
54458;SDS011;40368;49.350;8.152;2022-12-18T08:38:21;220;;;407;;
54458;SDS011;40368;49.350;8.152;2022-12-18T08:39:35;211;;;402;;
54458;SDS011;40368;49.350;8.152;2022-12-18T08:41:26;230;;;434;;
54458;SDS011;40368;49.350;8.152;2022-12-18T08:43:17;220;;;419;;
54458;SDS011;40368;49.350;8.152;2022-12-18T08:44:31;222;;;422;;
54458;SDS011;40368;49.350;8.152;2022-12-18T08:46:23;221;;;432;;
54458;SDS011;40368;49.350;8.152;2022-12-18T08:47:37;240;;;529;;
54458;SDS011;40368;49.350;8.152;2022-12-18T08:49:28;239;;;464;;
54458;SDS011;40368;49.350;8.152;2022-12-18T08:51:19;234;;;482;;
54458;SDS011;40368;49.350;8.152;2022-12-18T08:52:33;239;;;472;;
54458;SDS011;40368;49.350;8.152;2022-12-18T08:54:25;237;;;430;;
54458;SDS011;40368;49.350;8.152;2022-12-18T08:55:38;218;;;429;;
54458;SDS011;40368;49.350;8.152;2022-12-18T08:57:30;226;;;444;;
54458;SDS011;40368;49.350;8.152;2022-12-18T08:59:21;227;;;441;;
54458;SDS011;40368;49.350;8.152;2022-12-18T09:00:35;224;;;419;;
54458;SDS011;40368;49.350;8.152;2022-12-18T09:01:49;214;;;418;;
54458;SDS011;40368;49.350;8.152;2022-12-18T09:02:26;215;;;426;;
54458;SDS011;40368;49.350;8.152;2022-12-18T09:04:09;217;;;424;;
54458;SDS011;40368;49.350;8.152;2022-12-18T09:05:23;210;;;387;;
54458;SDS011;40368;49.350;8.152;2022-12-18T09:06:37;215;;;406;;
54458;SDS011;40368;49.350;8.152;2022-12-18T09:08:29;211;;;385;;
54458;SDS011;40368;49.350;8.152;2022-12-18T09:10:20;212;;;378;;
54458;SDS011;40368;49.350;8.152;2022-12-18T09:11:34;220;;;420;;
54458;SDS011;40368;49.350;8.152;2022-12-18T09:13:25;226;;;407;;
54458;SDS011;40368;49.350;8.152;2022-12-18T09:15:16;212;;;423;;
54458;SDS011;40368;49.350;8.152;2022-12-18T09:16:30;219;;;395;;
54458;SDS011;40368;49.350;8.152;2022-12-18T09:18:22;222;;;416;;
54458;SDS011;40368;49.350;8.152;2022-12-18T09:19:36;213;;;389;;
54458;SDS011;40368;49.350;8.152;2022-12-18T09:21:28;217;;;413;;
54458;SDS011;40368;49.350;8.152;2022-12-18T09:23:18;232;;;424;;
54458;SDS011;40368;49.350;8.152;2022-12-18T09:24:32;216;;;418;;
54458;SDS011;40368;49.350;8.152;2022-12-18T09:26:24;211;;;412;;
54458;SDS011;40368;49.350;8.152;2022-12-18T09:27:37;214;;;379;;
54458;SDS011;40368;49.350;8.152;2022-12-18T09:29:29;198;;;390;;
54458;SDS011;40368;49.350;8.152;2022-12-18T09:31:20;203;;;398;;
54458;SDS011;40368;49.350;8.152;2022-12-18T09:32:34;209;;;398;;
54458;SDS011;40368;49.350;8.152;2022-12-18T09:34:25;222;;;392;;
54458;SDS011;40368;49.350;8.152;2022-12-18T09:36:17;216;;;400;;
54458;SDS011;40368;49.350;8.152;2022-12-18T09:37:30;208;;;373;;
54458;SDS011;40368;49.350;8.152;2022-12-18T09:39:22;205;;;389;;
54458;SDS011;40368;49.350;8.152;2022-12-18T09:40:39;217;;;417;;
54458;SDS011;40368;49.350;8.152;2022-12-18T09:42:27;208;;;394;;
54458;SDS011;40368;49.350;8.152;2022-12-18T09:44:20;208;;;400;;
54458;SDS011;40368;49.350;8.152;2022-12-18T09:45:34;227;;;462;;
54458;SDS011;40368;49.350;8.152;2022-12-18T09:47:24;202;;;370;;
54458;SDS011;40368;49.350;8.152;2022-12-18T09:48:38;221;;;402;;
54458;SDS011;40368;49.350;8.152;2022-12-18T09:50:29;205;;;374;;
54458;SDS011;40368;49.350;8.152;2022-12-18T09:52:21;213;;;404;;
54458;SDS011;40368;49.350;8.152;2022-12-18T09:53:35;212;;;390;;
54458;SDS011;40368;49.350;8.152;2022-12-18T09:55:27;213;;;401;;
54458;SDS011;40368;49.350;8.152;2022-12-18T09:57:17;218;;;399;;
54458;SDS011;40368;49.350;8.152;2022-12-18T09:58:31;222;;;390;;
54458;SDS011;40368;49.350;8.152;2022-12-18T10:00:22;211;;;416;;
54458;SDS011;40368;49.350;8.152;2022-12-18T10:01:36;209;;;377;;
54458;SDS011;40368;49.350;8.152;2022-12-18T10:03:19;209;;;371;;
54458;SDS011;40368;49.350;8.152;2022-12-18T10:05:11;209;;;381;;
54458;SDS011;40368;49.350;8.152;2022-12-18T10:06:26;211;;;378;;
54458;SDS011;40368;49.350;8.152;2022-12-18T10:07:42;214;;;400;;
54458;SDS011;40368;49.350;8.152;2022-12-18T10:09:30;207;;;419;;
54458;SDS011;40368;49.350;8.152;2022-12-18T10:11:23;212;;;374;;